createdAt,value
2022-08-16T08:57:14.808Z,35.50
2022-08-16T09:00:08.004Z,35.80
2022-08-16T09:03:04.335Z,36.50
2022-08-16T09:05:53.334Z,36.40
2022-08-16T09:08:47.376Z,36.50
2022-08-16T09:11:41.036Z,36.70
2022-08-16T09:14:32.208Z,37.30
2022-08-16T09:17:47.434Z,37.20
2022-08-16T09:20:34.558Z,37.90
2022-08-16T09:23:45.594Z,36.90
2022-08-16T09:26:45.492Z,36.50
2022-08-16T09:38:22.314Z,37.00
2022-08-16T09:41:23.107Z,37.20
2022-08-16T09:45:12.275Z,37.80
2022-08-16T09:47:23.440Z,37.90
2022-08-16T09:50:23.009Z,37.90
2022-08-16T09:53:16.554Z,38.10
2022-08-16T09:56:11.521Z,38.60
2022-08-16T09:59:07.950Z,38.80
2022-08-16T10:01:57.119Z,39.50
2022-08-16T10:04:54.363Z,39.90
2022-08-16T10:10:35.215Z,38.80
2022-08-16T10:13:23.772Z,39.00
2022-08-16T10:19:09.256Z,37.80
2022-08-16T10:24:55.762Z,36.40
2022-08-16T10:27:56.990Z,37.20
2022-08-16T10:30:56.189Z,38.00
2022-08-16T10:36:39.742Z,37.30
2022-08-16T10:39:32.983Z,37.40
2022-08-16T10:42:30.601Z,37.10
2022-08-16T10:45:20.007Z,37.90
2022-08-16T10:48:27.028Z,39.30
2022-08-16T10:51:18.209Z,40.00
2022-08-16T10:54:21.198Z,39.80
2022-08-16T10:57:17.847Z,39.70
2022-08-16T11:00:22.317Z,39.40
2022-08-16T11:06:21.736Z,38.20
2022-08-16T11:09:24.598Z,38.10
2022-08-16T11:12:15.035Z,35.60
2022-08-16T11:15:12.144Z,39.00
2022-08-16T11:21:28.503Z,38.40
2022-08-16T11:24:42.451Z,37.70
2022-08-16T11:27:35.329Z,37.20
2022-08-16T11:30:38.767Z,39.30
2022-08-16T11:48:08.903Z,36.60
2022-08-16T11:50:58.271Z,37.30
2022-08-16T11:53:46.898Z,37.90
2022-08-16T11:56:51.479Z,37.70
2022-08-16T11:59:43.165Z,37.70
2022-08-16T12:02:33.179Z,38.00
2022-08-16T12:05:23.853Z,38.60
2022-08-16T12:08:12.817Z,38.40
2022-08-16T12:11:02.726Z,38.50
2022-08-16T12:16:55.050Z,36.00
2022-08-16T12:19:44.674Z,37.20
2022-08-16T12:22:36.531Z,38.30
2022-08-16T12:25:27.765Z,38.30
2022-08-16T12:28:17.402Z,37.80
2022-08-16T12:31:26.810Z,36.70
2022-08-16T12:34:19.876Z,37.80
2022-08-16T12:37:18.100Z,39.20
2022-08-16T12:40:23.718Z,39.80
2022-08-16T12:43:14.190Z,39.20
2022-08-16T12:46:03.063Z,40.50
2022-08-16T12:49:00.695Z,40.30
2022-08-16T12:51:59.403Z,39.20
2022-08-16T12:54:55.000Z,39.30
2022-08-16T12:57:44.355Z,39.20
2022-08-16T13:00:48.382Z,38.80
2022-08-16T13:03:40.891Z,38.20
2022-08-16T13:06:33.946Z,38.80
2022-08-16T13:09:26.101Z,39.60
2022-08-16T13:12:20.003Z,39.30
2022-08-16T13:15:12.997Z,40.20
2022-08-16T13:18:02.844Z,40.90
2022-08-16T13:21:11.487Z,41.10
2022-08-16T13:24:04.083Z,39.60
2022-08-16T13:26:54.530Z,38.90
2022-08-16T13:29:44.159Z,38.70
2022-08-16T13:32:39.417Z,37.90
2022-08-16T13:35:34.505Z,37.70
2022-08-16T13:38:24.896Z,37.00
2022-08-16T13:41:15.634Z,36.90
2022-08-16T14:30:15.636Z,37.40
2022-08-16T14:35:55.339Z,37.50
